Ana Sayfa
METAR-TAF:

METAR-TAF

Havaalanları :

Cruzeiro do Sul, Acre, Brezilya

Enlem: 07-38S, Boylam: 072-40W, yükseklik: 170 m

Güncel hava durumu gözlemi

Rapor saat 20:00 UTC de 12 saat ve 58 dakika önce yapıldı.
Rüzgar güneydan 8 kt
Sıcaklık 17°C
Nem 88%
Basınç 1018 hPa
Görüş mesafesi 10 km veya daha fazla
1200 ft yükseklikte çok bulutlu

METAR: SBCZ 242000Z 17008KT 9999 OVC012 17/15 Q1018

Saat: 03:58 (08:58 UTC)


TAF: eksik

4.000'den fazla havaalanı için hava durumu gözlemleri ve tahminleri (METAR ve TAF raporları).

Kullanılabilir istasyonlar harita üzerinde sarı ve kırmızı noktalarla gösterilir.

İstasyonun adını görmek için fareyi noktanın üzerinde gezdirin.

Sonrasında hava gözlem ve tahminlerini görmek için tıklayın.

Haritayı değiştirmek için: yaklaştırmak için siyah artı işaretli yeşil düğmeye ve uzaklaştırmak için de eksi işaretli düğmeye hızla tıklayın; bitişik haritalar için yeşil okları kullanın.


METAR-TAF: